sensor_id;sensor_type;location;lat;lon;timestamp;temperature;humidity
27534;DHT22;14973;51.460;7.008;2023-09-18T00:00:39;20.90;91.70
27534;DHT22;14973;51.460;7.008;2023-09-18T00:03:04;20.80;85.80
27534;DHT22;14973;51.460;7.008;2023-09-18T00:05:30;20.80;82.20
27534;DHT22;14973;51.460;7.008;2023-09-18T00:07:56;20.80;85.10
27534;DHT22;14973;51.460;7.008;2023-09-18T00:10:22;20.90;79.60
27534;DHT22;14973;51.460;7.008;2023-09-18T00:12:47;20.90;69.70
27534;DHT22;14973;51.460;7.008;2023-09-18T00:15:13;21.00;56.10
27534;DHT22;14973;51.460;7.008;2023-09-18T00:17:39;21.00;52.30
27534;DHT22;14973;51.460;7.008;2023-09-18T00:20:05;21.00;46.20
27534;DHT22;14973;51.460;7.008;2023-09-18T00:22:32;21.00;36.30
27534;DHT22;14973;51.460;7.008;2023-09-18T00:24:58;21.10;28.30
27534;DHT22;14973;51.460;7.008;2023-09-18T00:27:23;21.10;25.90
27534;DHT22;14973;51.460;7.008;2023-09-18T00:29:49;21.10;27.60
27534;DHT22;14973;51.460;7.008;2023-09-18T00:32:14;21.00;25.10
27534;DHT22;14973;51.460;7.008;2023-09-18T00:34:40;21.10;21.90
27534;DHT22;14973;51.460;7.008;2023-09-18T00:37:05;21.00;21.30
27534;DHT22;14973;51.460;7.008;2023-09-18T00:39:31;21.00;23.40
27534;DHT22;14973;51.460;7.008;2023-09-18T00:41:57;21.00;25.40
27534;DHT22;14973;51.460;7.008;2023-09-18T00:44:23;20.90;25.00
27534;DHT22;14973;51.460;7.008;2023-09-18T00:46:50;21.00;24.20
27534;DHT22;14973;51.460;7.008;2023-09-18T00:49:17;21.00;24.40
27534;DHT22;14973;51.460;7.008;2023-09-18T00:51:44;21.00;18.30
27534;DHT22;14973;51.460;7.008;2023-09-18T00:54:11;21.00;23.70
27534;DHT22;14973;51.460;7.008;2023-09-18T00:56:37;21.00;18.00
27534;DHT22;14973;51.460;7.008;2023-09-18T00:59:02;20.90;15.20
27534;DHT22;14973;51.460;7.008;2023-09-18T01:01:28;20.80;29.00
27534;DHT22;14973;51.460;7.008;2023-09-18T01:03:56;20.80;22.50
27534;DHT22;14973;51.460;7.008;2023-09-18T01:06:25;20.80;25.70
27534;DHT22;14973;51.460;7.008;2023-09-18T01:08:53;20.80;22.30
27534;DHT22;14973;51.460;7.008;2023-09-18T01:11:31;20.90;14.70
27534;DHT22;14973;51.460;7.008;2023-09-18T01:14:24;20.90;9.70
27534;DHT22;14973;51.460;7.008;2023-09-18T01:16:59;20.90;16.90
27534;DHT22;14973;51.460;7.008;2023-09-18T01:19:45;20.80;17.00
27534;DHT22;14973;51.460;7.008;2023-09-18T01:22:16;20.80;20.80
27534;DHT22;14973;51.460;7.008;2023-09-18T01:24:43;20.80;16.50
27534;DHT22;14973;51.460;7.008;2023-09-18T01:27:11;20.70;22.50
27534;DHT22;14973;51.460;7.008;2023-09-18T01:29:41;20.70;30.80
27534;DHT22;14973;51.460;7.008;2023-09-18T01:32:06;20.70;33.90
27534;DHT22;14973;51.460;7.008;2023-09-18T01:34:48;20.70;26.70
27534;DHT22;14973;51.460;7.008;2023-09-18T01:37:20;20.70;23.80
27534;DHT22;14973;51.460;7.008;2023-09-18T01:39:48;20.70;25.10
27534;DHT22;14973;51.460;7.008;2023-09-18T01:42:14;20.60;24.70
27534;DHT22;14973;51.460;7.008;2023-09-18T01:44:42;20.60;26.00
27534;DHT22;14973;51.460;7.008;2023-09-18T01:47:10;20.50;34.00
27534;DHT22;14973;51.460;7.008;2023-09-18T01:49:38;20.50;39.70
27534;DHT22;14973;51.460;7.008;2023-09-18T01:52:05;20.50;46.60
27534;DHT22;14973;51.460;7.008;2023-09-18T01:54:31;20.50;43.50
27534;DHT22;14973;51.460;7.008;2023-09-18T01:56:57;20.40;51.00
27534;DHT22;14973;51.460;7.008;2023-09-18T01:59:24;20.30;53.30
27534;DHT22;14973;51.460;7.008;2023-09-18T02:01:51;20.30;59.20
27534;DHT22;14973;51.460;7.008;2023-09-18T02:04:17;20.40;37.40
27534;DHT22;14973;51.460;7.008;2023-09-18T02:06:43;20.60;17.30
27534;DHT22;14973;51.460;7.008;2023-09-18T02:09:09;20.60;9.40
27534;DHT22;14973;51.460;7.008;2023-09-18T02:11:39;20.70;1.00
27534;DHT22;14973;51.460;7.008;2023-09-18T02:14:05;20.90;1.00
27534;DHT22;14973;51.460;7.008;2023-09-18T02:16:35;21.00;1.00
27534;DHT22;14973;51.460;7.008;2023-09-18T02:19:02;21.10;1.00
27534;DHT22;14973;51.460;7.008;2023-09-18T02:21:27;21.10;1.00
27534;DHT22;14973;51.460;7.008;2023-09-18T02:23:53;21.20;1.00
27534;DHT22;14973;51.460;7.008;2023-09-18T02:26:20;21.20;1.00
27534;DHT22;14973;51.460;7.008;2023-09-18T02:28:46;21.30;1.00
27534;DHT22;14973;51.460;7.008;2023-09-18T02:31:12;21.30;1.00
27534;DHT22;14973;51.460;7.008;2023-09-18T02:33:38;21.40;99.90
27534;DHT22;14973;51.460;7.008;2023-09-18T02:36:03;21.50;99.90
27534;DHT22;14973;51.460;7.008;2023-09-18T02:38:29;21.50;99.90
27534;DHT22;14973;51.460;7.008;2023-09-18T02:40:58;21.60;99.90
27534;DHT22;14973;51.460;7.008;2023-09-18T02:43:23;21.50;99.90
27534;DHT22;14973;51.460;7.008;2023-09-18T02:45:49;21.50;99.90
27534;DHT22;14973;51.460;7.008;2023-09-18T02:48:15;21.60;99.90
27534;DHT22;14973;51.460;7.008;2023-09-18T02:50:41;21.50;99.90
27534;DHT22;14973;51.460;7.008;2023-09-18T02:53:08;21.50;99.90
27534;DHT22;14973;51.460;7.008;2023-09-18T02:55:41;21.60;99.90
27534;DHT22;14973;51.460;7.008;2023-09-18T02:58:07;21.70;99.90
27534;DHT22;14973;51.460;7.008;2023-09-18T03:00:34;21.60;99.90
27534;DHT22;14973;51.460;7.008;2023-09-18T03:03:00;21.70;99.90
27534;DHT22;14973;51.460;7.008;2023-09-18T03:05:25;21.70;44.60
27534;DHT22;14973;51.460;7.008;2023-09-18T03:07:52;21.70;31.80
27534;DHT22;14973;51.460;7.008;2023-09-18T03:10:17;21.80;1.00
27534;DHT22;14973;51.460;7.008;2023-09-18T03:12:47;21.90;99.90
27534;DHT22;14973;51.460;7.008;2023-09-18T03:15:12;22.00;99.90
27534;DHT22;14973;51.460;7.008;2023-09-18T03:17:38;22.10;1.00
27534;DHT22;14973;51.460;7.008;2023-09-18T03:20:06;22.20;1.00
27534;DHT22;14973;51.460;7.008;2023-09-18T03:22:32;22.30;99.90
27534;DHT22;14973;51.460;7.008;2023-09-18T03:24:58;22.40;1.00
27534;DHT22;14973;51.460;7.008;2023-09-18T03:27:23;22.40;1.00
27534;DHT22;14973;51.460;7.008;2023-09-18T03:29:54;22.30;1.00
27534;DHT22;14973;51.460;7.008;2023-09-18T03:32:20;22.40;99.90
27534;DHT22;14973;51.460;7.008;2023-09-18T03:34:46;22.40;99.90
27534;DHT22;14973;51.460;7.008;2023-09-18T03:37:11;22.40;1.00
27534;DHT22;14973;51.460;7.008;2023-09-18T03:39:37;22.40;1.00
27534;DHT22;14973;51.460;7.008;2023-09-18T03:42:02;22.50;1.00
27534;DHT22;14973;51.460;7.008;2023-09-18T03:44:28;22.50;1.00
27534;DHT22;14973;51.460;7.008;2023-09-18T03:46:54;22.50;99.90
27534;DHT22;14973;51.460;7.008;2023-09-18T03:49:20;22.50;1.00
27534;DHT22;14973;51.460;7.008;2023-09-18T03:51:46;22.50;1.00
27534;DHT22;14973;51.460;7.008;2023-09-18T03:54:11;22.60;99.90
27534;DHT22;14973;51.460;7.008;2023-09-18T03:56:37;22.60;99.90
27534;DHT22;14973;51.460;7.008;2023-09-18T03:59:02;22.60;1.00
27534;DHT22;14973;51.460;7.008;2023-09-18T04:01:30;22.60;99.90
27534;DHT22;14973;51.460;7.008;2023-09-18T04:03:55;22.60;1.00
27534;DHT22;14973;51.460;7.008;2023-09-18T04:06:21;22.60;1.00
27534;DHT22;14973;51.460;7.008;2023-09-18T04:08:49;22.50;1.00
27534;DHT22;14973;51.460;7.008;2023-09-18T04:11:15;22.40;1.00
27534;DHT22;14973;51.460;7.008;2023-09-18T04:13:40;22.30;1.00
27534;DHT22;14973;51.460;7.008;2023-09-18T04:16:06;22.30;99.90
27534;DHT22;14973;51.460;7.008;2023-09-18T04:18:33;22.30;1.00
27534;DHT22;14973;51.460;7.008;2023-09-18T04:20:59;22.20;1.00
27534;DHT22;14973;51.460;7.008;2023-09-18T04:23:26;22.20;99.90
27534;DHT22;14973;51.460;7.008;2023-09-18T04:25:53;22.20;99.90
27534;DHT22;14973;51.460;7.008;2023-09-18T04:28:21;22.20;99.90
27534;DHT22;14973;51.460;7.008;2023-09-18T04:30:47;22.10;1.00
27534;DHT22;14973;51.460;7.008;2023-09-18T04:33:14;22.20;99.90
27534;DHT22;14973;51.460;7.008;2023-09-18T04:35:39;22.10;1.00
27534;DHT22;14973;51.460;7.008;2023-09-18T04:38:07;22.10;1.00
27534;DHT22;14973;51.460;7.008;2023-09-18T04:40:33;22.00;99.90
27534;DHT22;14973;51.460;7.008;2023-09-18T04:42:59;22.00;99.90
27534;DHT22;14973;51.460;7.008;2023-09-18T04:45:25;22.00;99.90
27534;DHT22;14973;51.460;7.008;2023-09-18T04:47:51;22.00;99.90
27534;DHT22;14973;51.460;7.008;2023-09-18T04:50:17;21.90;99.90
27534;DHT22;14973;51.460;7.008;2023-09-18T04:52:43;21.90;99.90
27534;DHT22;14973;51.460;7.008;2023-09-18T04:55:10;21.90;99.90
27534;DHT22;14973;51.460;7.008;2023-09-18T04:57:35;21.80;99.90
27534;DHT22;14973;51.460;7.008;2023-09-18T05:00:01;21.70;99.90
27534;DHT22;14973;51.460;7.008;2023-09-18T05:02:27;21.70;99.90
27534;DHT22;14973;51.460;7.008;2023-09-18T05:04:56;21.70;1.00
27534;DHT22;14973;51.460;7.008;2023-09-18T05:07:21;21.60;1.00
27534;DHT22;14973;51.460;7.008;2023-09-18T05:09:47;21.60;1.00
27534;DHT22;14973;51.460;7.008;2023-09-18T05:12:13;21.60;1.00
27534;DHT22;14973;51.460;7.008;2023-09-18T05:14:41;21.50;1.00
27534;DHT22;14973;51.460;7.008;2023-09-18T05:17:10;21.50;1.00
27534;DHT22;14973;51.460;7.008;2023-09-18T05:19:36;21.50;1.00
27534;DHT22;14973;51.460;7.008;2023-09-18T05:22:01;21.50;1.00
27534;DHT22;14973;51.460;7.008;2023-09-18T05:24:28;21.40;1.00
27534;DHT22;14973;51.460;7.008;2023-09-18T05:26:54;21.50;1.00
27534;DHT22;14973;51.460;7.008;2023-09-18T05:29:20;21.40;1.00
27534;DHT22;14973;51.460;7.008;2023-09-18T05:31:46;21.40;1.00
27534;DHT22;14973;51.460;7.008;2023-09-18T05:34:12;21.30;1.00
27534;DHT22;14973;51.460;7.008;2023-09-18T05:36:38;21.30;1.00
27534;DHT22;14973;51.460;7.008;2023-09-18T05:39:04;21.30;1.00
27534;DHT22;14973;51.460;7.008;2023-09-18T05:41:35;21.20;1.00
27534;DHT22;14973;51.460;7.008;2023-09-18T05:44:01;21.20;1.00
27534;DHT22;14973;51.460;7.008;2023-09-18T05:46:29;21.20;1.00
27534;DHT22;14973;51.460;7.008;2023-09-18T05:48:54;21.20;1.00
27534;DHT22;14973;51.460;7.008;2023-09-18T05:51:22;21.20;1.00
27534;DHT22;14973;51.460;7.008;2023-09-18T05:53:48;21.20;1.00
27534;DHT22;14973;51.460;7.008;2023-09-18T05:56:14;21.20;1.00
27534;DHT22;14973;51.460;7.008;2023-09-18T05:58:42;21.20;1.00
27534;DHT22;14973;51.460;7.008;2023-09-18T06:01:07;21.30;1.00
27534;DHT22;14973;51.460;7.008;2023-09-18T06:03:33;21.20;1.00
27534;DHT22;14973;51.460;7.008;2023-09-18T06:06:02;21.30;1.00
27534;DHT22;14973;51.460;7.008;2023-09-18T06:08:28;21.30;1.00
27534;DHT22;14973;51.460;7.008;2023-09-18T06:10:55;21.30;1.00
27534;DHT22;14973;51.460;7.008;2023-09-18T06:13:21;21.30;1.00
27534;DHT22;14973;51.460;7.008;2023-09-18T06:15:47;21.20;1.00
27534;DHT22;14973;51.460;7.008;2023-09-18T06:18:13;21.40;1.00
27534;DHT22;14973;51.460;7.008;2023-09-18T06:20:39;21.40;1.00
27534;DHT22;14973;51.460;7.008;2023-09-18T06:23:06;21.40;1.00
27534;DHT22;14973;51.460;7.008;2023-09-18T06:25:31;21.40;1.00
27534;DHT22;14973;51.460;7.008;2023-09-18T06:27:57;21.30;1.00
27534;DHT22;14973;51.460;7.008;2023-09-18T06:30:23;21.30;1.00
27534;DHT22;14973;51.460;7.008;2023-09-18T06:32:49;21.40;1.00
27534;DHT22;14973;51.460;7.008;2023-09-18T06:35:14;21.50;1.00
27534;DHT22;14973;51.460;7.008;2023-09-18T06:37:40;21.50;1.00
27534;DHT22;14973;51.460;7.008;2023-09-18T06:40:06;21.50;1.00
27534;DHT22;14973;51.460;7.008;2023-09-18T06:42:32;21.50;1.00
27534;DHT22;14973;51.460;7.008;2023-09-18T06:44:58;21.60;1.00
27534;DHT22;14973;51.460;7.008;2023-09-18T06:47:23;21.70;1.00
27534;DHT22;14973;51.460;7.008;2023-09-18T06:49:52;21.60;1.00
27534;DHT22;14973;51.460;7.008;2023-09-18T06:52:18;21.60;1.00
27534;DHT22;14973;51.460;7.008;2023-09-18T06:54:43;21.70;1.00
27534;DHT22;14973;51.460;7.008;2023-09-18T06:57:09;21.70;1.00
27534;DHT22;14973;51.460;7.008;2023-09-18T06:59:35;21.70;1.00
27534;DHT22;14973;51.460;7.008;2023-09-18T07:02:01;21.70;1.00
27534;DHT22;14973;51.460;7.008;2023-09-18T07:04:27;21.80;1.00
27534;DHT22;14973;51.460;7.008;2023-09-18T07:06:53;21.80;1.00
27534;DHT22;14973;51.460;7.008;2023-09-18T07:09:19;21.80;1.00
27534;DHT22;14973;51.460;7.008;2023-09-18T07:11:48;21.90;1.00
27534;DHT22;14973;51.460;7.008;2023-09-18T07:14:14;22.00;99.90
27534;DHT22;14973;51.460;7.008;2023-09-18T07:16:40;22.10;99.90
27534;DHT22;14973;51.460;7.008;2023-09-18T07:19:05;22.20;99.90
27534;DHT22;14973;51.460;7.008;2023-09-18T07:21:32;22.30;99.90
27534;DHT22;14973;51.460;7.008;2023-09-18T07:24:00;22.30;99.90
27534;DHT22;14973;51.460;7.008;2023-09-18T07:26:25;22.40;1.00
27534;DHT22;14973;51.460;7.008;2023-09-18T07:28:51;22.60;99.90
27534;DHT22;14973;51.460;7.008;2023-09-18T07:31:17;22.90;69.40
27534;DHT22;14973;51.460;7.008;2023-09-18T07:33:43;23.10;1.00
27534;DHT22;14973;51.460;7.008;2023-09-18T07:36:08;23.10;1.00
27534;DHT22;14973;51.460;7.008;2023-09-18T07:38:35;23.30;1.00
27534;DHT22;14973;51.460;7.008;2023-09-18T07:41:02;23.60;50.30
27534;DHT22;14973;51.460;7.008;2023-09-18T07:43:27;23.70;99.90
27534;DHT22;14973;51.460;7.008;2023-09-18T07:45:53;23.70;1.00
27534;DHT22;14973;51.460;7.008;2023-09-18T07:48:21;23.70;99.90
27534;DHT22;14973;51.460;7.008;2023-09-18T07:50:47;23.60;1.00
27534;DHT22;14973;51.460;7.008;2023-09-18T07:53:15;23.50;1.00
27534;DHT22;14973;51.460;7.008;2023-09-18T07:55:40;23.40;1.00
27534;DHT22;14973;51.460;7.008;2023-09-18T07:58:06;23.20;99.90
27534;DHT22;14973;51.460;7.008;2023-09-18T08:00:32;23.10;1.00
27534;DHT22;14973;51.460;7.008;2023-09-18T08:02:58;23.10;1.00
27534;DHT22;14973;51.460;7.008;2023-09-18T08:05:29;23.00;99.90
27534;DHT22;14973;51.460;7.008;2023-09-18T08:07:55;23.00;1.00
27534;DHT22;14973;51.460;7.008;2023-09-18T08:10:22;23.10;67.00
27534;DHT22;14973;51.460;7.008;2023-09-18T08:12:48;23.10;99.90
27534;DHT22;14973;51.460;7.008;2023-09-18T08:15:15;23.00;19.10
27534;DHT22;14973;51.460;7.008;2023-09-18T08:17:40;23.00;99.90
27534;DHT22;14973;51.460;7.008;2023-09-18T08:20:09;23.20;99.90
27534;DHT22;14973;51.460;7.008;2023-09-18T08:22:42;23.60;99.90
27534;DHT22;14973;51.460;7.008;2023-09-18T08:25:08;23.60;1.00
27534;DHT22;14973;51.460;7.008;2023-09-18T08:27:37;23.40;1.00
27534;DHT22;14973;51.460;7.008;2023-09-18T08:30:07;23.30;1.00
27534;DHT22;14973;51.460;7.008;2023-09-18T08:32:35;23.30;1.00
27534;DHT22;14973;51.460;7.008;2023-09-18T08:35:01;23.00;86.30
27534;DHT22;14973;51.460;7.008;2023-09-18T08:37:27;23.00;99.90
27534;DHT22;14973;51.460;7.008;2023-09-18T08:39:53;23.20;1.50
27534;DHT22;14973;51.460;7.008;2023-09-18T08:42:20;23.70;1.00
27534;DHT22;14973;51.460;7.008;2023-09-18T08:44:48;24.10;99.90
27534;DHT22;14973;51.460;7.008;2023-09-18T08:47:17;24.30;9.90
27534;DHT22;14973;51.460;7.008;2023-09-18T08:49:45;24.40;1.00
27534;DHT22;14973;51.460;7.008;2023-09-18T08:52:12;24.20;1.00
27534;DHT22;14973;51.460;7.008;2023-09-18T08:54:40;24.00;1.00
27534;DHT22;14973;51.460;7.008;2023-09-18T08:57:05;23.90;1.00
27534;DHT22;14973;51.460;7.008;2023-09-18T08:59:35;24.00;1.00
27534;DHT22;14973;51.460;7.008;2023-09-18T09:02:02;23.90;1.00
27534;DHT22;14973;51.460;7.008;2023-09-18T09:04:28;23.70;1.00
27534;DHT22;14973;51.460;7.008;2023-09-18T09:06:54;23.60;1.00
27534;DHT22;14973;51.460;7.008;2023-09-18T09:09:23;23.70;1.00
27534;DHT22;14973;51.460;7.008;2023-09-18T09:11:51;23.80;1.00
27534;DHT22;14973;51.460;7.008;2023-09-18T09:14:17;23.70;1.00
27534;DHT22;14973;51.460;7.008;2023-09-18T09:16:48;23.80;1.00
27534;DHT22;14973;51.460;7.008;2023-09-18T09:19:15;23.90;1.00
27534;DHT22;14973;51.460;7.008;2023-09-18T09:21:42;24.10;1.00
27534;DHT22;14973;51.460;7.008;2023-09-18T09:24:09;24.40;1.00
27534;DHT22;14973;51.460;7.008;2023-09-18T09:26:40;25.40;1.00
27534;DHT22;14973;51.460;7.008;2023-09-18T09:29:16;26.10;99.90
27534;DHT22;14973;51.460;7.008;2023-09-18T09:31:43;26.20;99.90
27534;DHT22;14973;51.460;7.008;2023-09-18T09:34:09;26.30;99.90
27534;DHT22;14973;51.460;7.008;2023-09-18T09:36:35;26.00;99.90
27534;DHT22;14973;51.460;7.008;2023-09-18T09:39:00;25.60;99.90
27534;DHT22;14973;51.460;7.008;2023-09-18T09:41:27;25.50;99.90
27534;DHT22;14973;51.460;7.008;2023-09-18T09:43:53;25.20;99.90
27534;DHT22;14973;51.460;7.008;2023-09-18T09:46:21;24.90;99.90
27534;DHT22;14973;51.460;7.008;2023-09-18T09:49:06;24.80;99.90
27534;DHT22;14973;51.460;7.008;2023-09-18T09:51:32;24.80;99.90
27534;DHT22;14973;51.460;7.008;2023-09-18T09:53:59;24.70;99.90
27534;DHT22;14973;51.460;7.008;2023-09-18T09:56:46;24.60;99.90
27534;DHT22;14973;51.460;7.008;2023-09-18T09:59:14;24.60;99.90
27534;DHT22;14973;51.460;7.008;2023-09-18T10:01:41;24.70;99.90
27534;DHT22;14973;51.460;7.008;2023-09-18T10:04:12;25.10;99.90
27534;DHT22;14973;51.460;7.008;2023-09-18T10:06:42;25.20;99.90
27534;DHT22;14973;51.460;7.008;2023-09-18T10:09:10;25.20;99.90
27534;DHT22;14973;51.460;7.008;2023-09-18T10:11:40;25.30;99.90
27534;DHT22;14973;51.460;7.008;2023-09-18T10:14:12;25.30;99.90
27534;DHT22;14973;51.460;7.008;2023-09-18T10:16:40;25.20;99.90
27534;DHT22;14973;51.460;7.008;2023-09-18T10:19:31;25.20;99.90
27534;DHT22;14973;51.460;7.008;2023-09-18T10:24:46;25.40;99.90
27534;DHT22;14973;51.460;7.008;2023-09-18T10:27:13;25.50;99.90
27534;DHT22;14973;51.460;7.008;2023-09-18T10:29:41;25.90;99.90
27534;DHT22;14973;51.460;7.008;2023-09-18T10:32:07;25.80;99.90
27534;DHT22;14973;51.460;7.008;2023-09-18T10:34:34;26.00;99.90
27534;DHT22;14973;51.460;7.008;2023-09-18T10:37:01;26.10;99.90
27534;DHT22;14973;51.460;7.008;2023-09-18T10:39:38;26.10;99.90
27534;DHT22;14973;51.460;7.008;2023-09-18T10:42:07;26.30;99.90
27534;DHT22;14973;51.460;7.008;2023-09-18T10:44:34;26.40;99.90
27534;DHT22;14973;51.460;7.008;2023-09-18T10:47:02;26.60;99.90
27534;DHT22;14973;51.460;7.008;2023-09-18T10:49:28;26.60;99.90
27534;DHT22;14973;51.460;7.008;2023-09-18T10:51:55;26.50;99.90
27534;DHT22;14973;51.460;7.008;2023-09-18T10:54:23;26.40;99.90
27534;DHT22;14973;51.460;7.008;2023-09-18T10:56:50;26.10;96.70
27534;DHT22;14973;51.460;7.008;2023-09-18T10:59:16;26.20;99.00
27534;DHT22;14973;51.460;7.008;2023-09-18T11:01:43;26.10;99.90
27534;DHT22;14973;51.460;7.008;2023-09-18T11:04:09;26.20;99.90
27534;DHT22;14973;51.460;7.008;2023-09-18T11:09:27;26.50;76.50
27534;DHT22;14973;51.460;7.008;2023-09-18T11:14:42;26.80;71.40
27534;DHT22;14973;51.460;7.008;2023-09-18T11:20:07;26.90;48.20
27534;DHT22;14973;51.460;7.008;2023-09-18T11:22:49;27.10;35.00
27534;DHT22;14973;51.460;7.008;2023-09-18T11:25:36;27.10;27.60
27534;DHT22;14973;51.460;7.008;2023-09-18T11:28:13;27.30;22.60
27534;DHT22;14973;51.460;7.008;2023-09-18T11:30:57;27.40;9.50
27534;DHT22;14973;51.460;7.008;2023-09-18T11:33:45;27.50;1.00
27534;DHT22;14973;51.460;7.008;2023-09-18T11:36:13;27.20;1.00
27534;DHT22;14973;51.460;7.008;2023-09-18T11:38:56;27.10;1.00
27534;DHT22;14973;51.460;7.008;2023-09-18T11:41:24;26.80;1.00
27534;DHT22;14973;51.460;7.008;2023-09-18T11:46:49;26.60;1.00
27534;DHT22;14973;51.460;7.008;2023-09-18T11:49:22;26.50;1.00
27534;DHT22;14973;51.460;7.008;2023-09-18T11:51:48;26.40;1.00
27534;DHT22;14973;51.460;7.008;2023-09-18T11:54:15;26.10;1.00
27534;DHT22;14973;51.460;7.008;2023-09-18T11:56:42;25.80;1.00
27534;DHT22;14973;51.460;7.008;2023-09-18T11:59:07;25.70;1.00
27534;DHT22;14973;51.460;7.008;2023-09-18T12:01:34;25.60;1.00
27534;DHT22;14973;51.460;7.008;2023-09-18T12:04:05;25.40;1.00
27534;DHT22;14973;51.460;7.008;2023-09-18T12:06:35;25.40;1.00
27534;DHT22;14973;51.460;7.008;2023-09-18T12:09:02;25.50;1.00
27534;DHT22;14973;51.460;7.008;2023-09-18T12:11:29;25.70;1.00
27534;DHT22;14973;51.460;7.008;2023-09-18T12:13:55;26.10;1.00
27534;DHT22;14973;51.460;7.008;2023-09-18T12:16:21;26.40;1.00
27534;DHT22;14973;51.460;7.008;2023-09-18T12:18:47;26.40;1.00
27534;DHT22;14973;51.460;7.008;2023-09-18T12:21:14;26.40;1.00
27534;DHT22;14973;51.460;7.008;2023-09-18T12:23:41;26.50;1.00
27534;DHT22;14973;51.460;7.008;2023-09-18T12:26:11;26.60;1.00
27534;DHT22;14973;51.460;7.008;2023-09-18T12:28:39;26.60;1.00
27534;DHT22;14973;51.460;7.008;2023-09-18T12:31:05;26.60;1.00
27534;DHT22;14973;51.460;7.008;2023-09-18T12:33:35;26.40;1.00
27534;DHT22;14973;51.460;7.008;2023-09-18T12:36:05;26.30;1.00
27534;DHT22;14973;51.460;7.008;2023-09-18T12:38:32;26.20;1.00
27534;DHT22;14973;51.460;7.008;2023-09-18T12:40:59;25.90;1.00
27534;DHT22;14973;51.460;7.008;2023-09-18T12:43:34;25.90;1.00
27534;DHT22;14973;51.460;7.008;2023-09-18T12:46:00;26.10;1.00
27534;DHT22;14973;51.460;7.008;2023-09-18T12:48:25;26.30;1.00
27534;DHT22;14973;51.460;7.008;2023-09-18T12:50:52;26.50;1.00
27534;DHT22;14973;51.460;7.008;2023-09-18T12:53:22;26.60;1.00
27534;DHT22;14973;51.460;7.008;2023-09-18T12:55:48;26.50;1.00
27534;DHT22;14973;51.460;7.008;2023-09-18T12:58:19;26.50;1.00
27534;DHT22;14973;51.460;7.008;2023-09-18T13:00:49;26.70;1.00
27534;DHT22;14973;51.460;7.008;2023-09-18T13:03:15;26.70;1.00
27534;DHT22;14973;51.460;7.008;2023-09-18T13:05:41;26.50;1.00
27534;DHT22;14973;51.460;7.008;2023-09-18T13:08:06;26.40;1.00
27534;DHT22;14973;51.460;7.008;2023-09-18T13:10:46;26.40;1.00
27534;DHT22;14973;51.460;7.008;2023-09-18T13:13:22;26.30;1.00
27534;DHT22;14973;51.460;7.008;2023-09-18T13:15:49;26.20;1.00
27534;DHT22;14973;51.460;7.008;2023-09-18T13:18:15;26.10;1.00
27534;DHT22;14973;51.460;7.008;2023-09-18T13:20:42;26.20;1.00
27534;DHT22;14973;51.460;7.008;2023-09-18T13:23:09;26.30;1.00
27534;DHT22;14973;51.460;7.008;2023-09-18T13:25:37;26.20;1.00
27534;DHT22;14973;51.460;7.008;2023-09-18T13:28:05;26.20;1.00
27534;DHT22;14973;51.460;7.008;2023-09-18T13:30:32;26.30;1.00
27534;DHT22;14973;51.460;7.008;2023-09-18T13:33:17;26.40;1.00
27534;DHT22;14973;51.460;7.008;2023-09-18T13:35:45;26.40;1.00
27534;DHT22;14973;51.460;7.008;2023-09-18T13:38:11;26.50;1.00
27534;DHT22;14973;51.460;7.008;2023-09-18T13:40:41;26.50;1.00
27534;DHT22;14973;51.460;7.008;2023-09-18T13:43:10;26.70;1.00
27534;DHT22;14973;51.460;7.008;2023-09-18T13:45:37;26.80;1.00
27534;DHT22;14973;51.460;7.008;2023-09-18T13:48:06;26.70;1.00
27534;DHT22;14973;51.460;7.008;2023-09-18T13:50:36;26.60;1.00
27534;DHT22;14973;51.460;7.008;2023-09-18T13:53:02;26.60;1.00
27534;DHT22;14973;51.460;7.008;2023-09-18T13:55:32;26.40;1.00
27534;DHT22;14973;51.460;7.008;2023-09-18T13:57:58;26.30;1.00
27534;DHT22;14973;51.460;7.008;2023-09-18T14:00:23;26.10;1.00
27534;DHT22;14973;51.460;7.008;2023-09-18T14:02:51;25.90;1.00
27534;DHT22;14973;51.460;7.008;2023-09-18T14:05:16;25.90;1.00
27534;DHT22;14973;51.460;7.008;2023-09-18T14:07:42;25.80;1.00
27534;DHT22;14973;51.460;7.008;2023-09-18T14:10:09;25.80;1.00
27534;DHT22;14973;51.460;7.008;2023-09-18T14:12:36;25.60;1.00
27534;DHT22;14973;51.460;7.008;2023-09-18T14:15:03;25.60;1.00
27534;DHT22;14973;51.460;7.008;2023-09-18T14:17:30;25.60;1.00
27534;DHT22;14973;51.460;7.008;2023-09-18T14:19:56;25.60;1.00
27534;DHT22;14973;51.460;7.008;2023-09-18T14:22:21;25.60;1.00
27534;DHT22;14973;51.460;7.008;2023-09-18T14:24:47;25.60;1.00
27534;DHT22;14973;51.460;7.008;2023-09-18T14:27:13;25.60;1.00
27534;DHT22;14973;51.460;7.008;2023-09-18T14:29:39;25.70;1.00
27534;DHT22;14973;51.460;7.008;2023-09-18T14:32:05;25.60;1.00
27534;DHT22;14973;51.460;7.008;2023-09-18T14:34:33;25.50;1.00
27534;DHT22;14973;51.460;7.008;2023-09-18T14:37:01;25.40;1.00
27534;DHT22;14973;51.460;7.008;2023-09-18T14:39:30;25.50;1.00
27534;DHT22;14973;51.460;7.008;2023-09-18T14:41:55;25.50;1.00
27534;DHT22;14973;51.460;7.008;2023-09-18T14:44:21;25.40;1.00
27534;DHT22;14973;51.460;7.008;2023-09-18T14:46:47;25.40;1.00
27534;DHT22;14973;51.460;7.008;2023-09-18T14:49:12;25.40;1.00
27534;DHT22;14973;51.460;7.008;2023-09-18T14:51:38;25.40;1.00
27534;DHT22;14973;51.460;7.008;2023-09-18T14:54:04;25.40;1.00
27534;DHT22;14973;51.460;7.008;2023-09-18T14:56:30;25.40;1.00
27534;DHT22;14973;51.460;7.008;2023-09-18T14:58:56;25.40;1.00
27534;DHT22;14973;51.460;7.008;2023-09-18T15:01:24;25.40;1.00
27534;DHT22;14973;51.460;7.008;2023-09-18T15:03:50;25.30;1.00
27534;DHT22;14973;51.460;7.008;2023-09-18T15:06:16;25.20;1.00
27534;DHT22;14973;51.460;7.008;2023-09-18T15:08:42;25.10;1.00
27534;DHT22;14973;51.460;7.008;2023-09-18T15:11:07;25.20;1.00
27534;DHT22;14973;51.460;7.008;2023-09-18T15:13:34;25.20;1.00
27534;DHT22;14973;51.460;7.008;2023-09-18T15:16:03;25.10;1.00
27534;DHT22;14973;51.460;7.008;2023-09-18T15:18:29;25.10;1.00
27534;DHT22;14973;51.460;7.008;2023-09-18T15:20:54;25.10;1.00
27534;DHT22;14973;51.460;7.008;2023-09-18T15:23:21;25.10;1.00
27534;DHT22;14973;51.460;7.008;2023-09-18T15:25:50;25.20;1.00
27534;DHT22;14973;51.460;7.008;2023-09-18T15:28:16;25.20;1.00
27534;DHT22;14973;51.460;7.008;2023-09-18T15:30:45;25.00;1.00
27534;DHT22;14973;51.460;7.008;2023-09-18T15:33:10;25.00;1.00
27534;DHT22;14973;51.460;7.008;2023-09-18T15:35:37;25.00;1.00
27534;DHT22;14973;51.460;7.008;2023-09-18T15:38:03;25.00;1.00
27534;DHT22;14973;51.460;7.008;2023-09-18T15:40:29;25.00;1.00
27534;DHT22;14973;51.460;7.008;2023-09-18T15:42:54;25.00;1.00
27534;DHT22;14973;51.460;7.008;2023-09-18T15:45:20;25.00;1.00
27534;DHT22;14973;51.460;7.008;2023-09-18T15:47:46;24.90;1.00
27534;DHT22;14973;51.460;7.008;2023-09-18T15:50:12;24.90;1.00
27534;DHT22;14973;51.460;7.008;2023-09-18T15:52:38;24.90;1.00
27534;DHT22;14973;51.460;7.008;2023-09-18T15:55:05;24.80;1.00